Weather at Nassau Helicopters Heliport

Public forecast

Using degrees Celsius for public forecast. Weather courtesy of forecast.io.

Closest aviation weather report (METAR) to Nassau Helicopters Heliport

Closest report is Lynden Pindling International Airport, 7.6 nm (14.1 km) WSW.

2024/05/20 05:00 (retrieved 50 minutes ago)

MYNN 200500Z 08008KT 9999 SCT020 BKN0445 24/22 A2997

Closest aviation forecast (TAF) to Nassau Helicopters Heliport

Forecast is more than 6 hours old.

Closest forecast is Homestead ARB Airport, 167.4 nm (310.1 km) W.

2024/05/19 19:00 (retrieved 11 hours ago)

TAF KHST 191900Z 1919/2101 21012KT 9999 SCT035 SCT180 QNH2986INS TEMPO 1920/1923 9000 -SHRA VCTS BKN025CB BECMG 1923/1924 25009KT 9999 NSW SCT025 SCT050 BKN120 QNH2985INS TEMPO 2010/2015 8000 -SHRA VCTS BKN020CB BKN080 BECMG 2014/2015 26010G15KT 9999 VCSH SCT025 BKN050 QNH2984INS BECMG 2022/2023 29009KT 9999 VCSH SCT025 BKN050 QNH2984INS TX35/1919Z TN25/2011Z